LEVC/VLC METAR and TAF weather

Enter ICAO airport designator
Station Type Date Time Source
LEVC METAR 2021/03/08 15:30 UTC NOAA

LEVC 081530Z 04006KT 010V090 9999 FEW030 BKN050 13/09 Q1015 NOSIG


Station Type Date Time Source
LEVC Decoded METAR 2021/03/08 15:30 UTC NOAA

Valencia / Aeropuerto, Spain (LEVC) 39-30N 000-28W 62M
Mar 08, 2021 - 10:30 AM EST / 2021.03.08 1530 UTC
Wind: from the NE (040 degrees) at 7 MPH (6 KT) (direction variable):0
Visibility: greater than 7 mile(s):0
Sky conditions: mostly cloudy
Temperature: 55 F (13 C)
Dew Point: 48 F (9 C)
Relative Humidity: 76%
Pressure (altimeter): 29.97 in. Hg (1015 hPa)
ob: LEVC 081530Z 04006KT 010V090 9999 FEW030 BKN050 13/09 Q1015 NOSIG
cycle: 15

Station Type Date Time Source
LEVC TAF 2021/03/08 12:27 UTC NOAA

TAF LEVC 081100Z 0812/0912 06010KT 9999 SCT040 TX15/0812Z TN08/0906Z PROB30
TEMPO 0812/0820 RA BKN030 PROB30
TEMPO 0813/0819 FEW030CB
BECMG 0819/0821 31005KT

Example: see airport list